createdAt,value
2022-09-01T00:02:08.613Z,13.29
2022-09-01T00:05:32.838Z,13.24
2022-09-01T00:08:59.257Z,13.17
2022-09-01T00:12:22.732Z,13.09
2022-09-01T00:15:45.076Z,13.05
2022-09-01T00:19:07.615Z,13.00
2022-09-01T00:22:29.765Z,12.98
2022-09-01T00:25:52.924Z,12.98
2022-09-01T00:29:14.938Z,12.98
2022-09-01T00:32:36.813Z,12.96
2022-09-01T00:35:58.791Z,12.94
2022-09-01T00:39:20.588Z,12.91
2022-09-01T00:42:44.605Z,12.88
2022-09-01T00:46:09.021Z,12.87
2022-09-01T00:49:36.153Z,12.84
2022-09-01T00:52:57.989Z,12.84
2022-09-01T00:56:19.759Z,12.81
2022-09-01T00:59:48.122Z,12.78
2022-09-01T01:03:10.723Z,12.77
2022-09-01T01:06:33.246Z,12.78
2022-09-01T01:09:55.550Z,12.76
2022-09-01T01:13:18.470Z,12.77
2022-09-01T01:16:44.766Z,12.77
2022-09-01T01:20:28.058Z,12.74
2022-09-01T01:23:58.669Z,12.70
2022-09-01T01:27:22.008Z,12.68
2022-09-01T01:30:51.160Z,12.67
2022-09-01T01:34:12.889Z,12.64
2022-09-01T01:37:35.736Z,12.61
2022-09-01T01:40:57.686Z,12.56
2022-09-01T01:44:27.935Z,12.54
2022-09-01T01:47:54.529Z,12.50
2022-09-01T01:51:21.290Z,12.47
2022-09-01T01:54:43.788Z,12.43
2022-09-01T01:58:05.590Z,12.41
2022-09-01T02:01:32.152Z,12.40
2022-09-01T02:04:55.041Z,12.36
2022-09-01T02:08:20.992Z,12.33
2022-09-01T02:11:44.009Z,12.29
2022-09-01T02:15:07.354Z,12.25
2022-09-01T02:18:35.389Z,12.21
2022-09-01T02:22:00.117Z,12.16
2022-09-01T02:25:22.490Z,12.11
2022-09-01T02:28:55.515Z,12.07
2022-09-01T02:32:22.177Z,12.01
2022-09-01T02:35:45.558Z,11.99
2022-09-01T02:39:08.153Z,11.96
2022-09-01T02:42:30.235Z,11.94
2022-09-01T02:45:57.694Z,11.89
2022-09-01T02:49:28.281Z,11.85
2022-09-01T02:52:53.862Z,11.80
2022-09-01T02:56:18.564Z,11.73
2022-09-01T02:59:43.926Z,11.70
2022-09-01T03:03:08.210Z,11.67
2022-09-01T03:06:34.529Z,11.64
2022-09-01T03:09:57.936Z,11.58
2022-09-01T03:13:23.728Z,11.55
2022-09-01T03:16:45.853Z,11.53
2022-09-01T03:20:08.580Z,11.49
2022-09-01T03:23:33.289Z,11.47
2022-09-01T03:26:56.871Z,11.42
2022-09-01T03:30:20.303Z,11.35
2022-09-01T03:33:43.114Z,11.30
2022-09-01T03:37:13.634Z,11.26
2022-09-01T03:40:37.508Z,11.22
2022-09-01T03:44:00.877Z,11.18
2022-09-01T03:47:26.185Z,11.14
2022-09-01T03:50:48.087Z,11.10
2022-09-01T03:54:10.110Z,11.09
2022-09-01T03:57:32.617Z,11.06
2022-09-01T04:01:00.828Z,11.05
2022-09-01T04:04:22.643Z,11.05
2022-09-01T04:07:48.640Z,11.02
2022-09-01T04:11:16.459Z,11.01
2022-09-01T04:14:38.706Z,10.99
2022-09-01T04:18:10.818Z,10.99
2022-09-01T04:21:33.422Z,10.94
2022-09-01T04:24:56.243Z,10.92
2022-09-01T04:28:24.761Z,10.89
2022-09-01T04:31:48.798Z,10.88
2022-09-01T04:35:16.930Z,10.85
2022-09-01T04:38:39.182Z,10.81
2022-09-01T04:42:01.128Z,10.77
2022-09-01T04:45:27.935Z,10.74
2022-09-01T04:48:54.476Z,10.74
2022-09-01T04:52:17.762Z,10.76
2022-09-01T04:55:41.198Z,10.74
2022-09-01T04:59:04.074Z,10.74
2022-09-01T05:02:28.166Z,10.79
2022-09-01T05:05:49.788Z,10.82
2022-09-01T05:09:14.441Z,10.90
2022-09-01T05:13:09.894Z,10.89
2022-09-01T05:16:32.589Z,10.95
2022-09-01T05:19:57.004Z,10.99
2022-09-01T05:23:20.110Z,11.08
2022-09-01T05:26:44.298Z,11.17
2022-09-01T05:30:08.620Z,11.24
2022-09-01T05:33:30.225Z,11.34
2022-09-01T05:36:52.994Z,11.36
2022-09-01T05:40:16.365Z,11.38
2022-09-01T05:43:46.347Z,11.44
2022-09-01T05:47:09.812Z,11.51
2022-09-01T05:50:40.686Z,11.62
2022-09-01T05:54:05.002Z,11.70
2022-09-01T05:57:36.595Z,11.82
2022-09-01T06:01:00.775Z,11.97
2022-09-01T06:04:23.498Z,12.10
2022-09-01T06:07:47.279Z,12.25
2022-09-01T06:11:12.590Z,12.39
2022-09-01T06:14:35.127Z,12.49
2022-09-01T06:17:58.856Z,12.58
2022-09-01T06:21:24.764Z,12.68
2022-09-01T06:24:54.543Z,12.80
2022-09-01T06:28:23.915Z,12.91
2022-09-01T06:31:51.843Z,13.01
2022-09-01T06:35:18.155Z,13.12
2022-09-01T06:38:42.681Z,13.23
2022-09-01T06:42:06.368Z,13.36
2022-09-01T06:45:43.618Z,13.50
2022-09-01T06:49:05.756Z,13.59
2022-09-01T06:53:32.157Z,13.72
2022-09-01T06:56:13.653Z,13.84
2022-09-01T06:59:35.867Z,13.94
2022-09-01T07:02:59.995Z,14.03
2022-09-01T07:14:29.850Z,14.39
2022-09-01T07:17:54.119Z,14.50
2022-09-01T07:25:12.154Z,14.71
2022-09-01T07:28:47.885Z,14.85
2022-09-01T07:39:55.682Z,15.21
2022-09-01T07:43:40.008Z,15.38
2022-09-01T07:47:52.498Z,15.52
2022-09-01T07:51:35.736Z,15.65
2022-09-01T07:54:48.891Z,15.81
2022-09-01T07:58:10.678Z,15.90
2022-09-01T08:01:34.233Z,16.02
2022-09-01T08:04:57.491Z,16.16
2022-09-01T08:08:20.000Z,16.27
2022-09-01T08:12:01.669Z,16.37
2022-09-01T08:16:06.986Z,16.50
2022-09-01T08:19:16.338Z,16.63
2022-09-01T08:23:03.423Z,16.79
2022-09-01T08:26:28.521Z,16.91
2022-09-01T08:29:50.416Z,17.03
2022-09-01T08:33:13.945Z,17.14
2022-09-01T08:36:38.940Z,17.21
2022-09-01T08:40:04.044Z,17.30
2022-09-01T08:43:39.306Z,17.36
2022-09-01T08:47:06.651Z,17.44
2022-09-01T08:50:28.874Z,17.53
2022-09-01T08:54:29.667Z,17.61
2022-09-01T08:57:59.793Z,17.69
2022-09-01T09:01:32.357Z,17.69
2022-09-01T09:05:15.589Z,17.69
2022-09-01T09:08:52.441Z,17.78
2022-09-01T09:12:51.383Z,17.87
2022-09-01T09:16:21.836Z,17.84
2022-09-01T09:19:45.765Z,17.83
2022-09-01T09:23:18.328Z,17.86
2022-09-01T09:26:43.389Z,17.85
2022-09-01T09:30:09.729Z,17.90
2022-09-01T09:33:55.497Z,17.97
2022-09-01T09:37:29.046Z,17.96
2022-09-01T09:44:45.246Z,18.05
2022-09-01T09:48:11.104Z,18.11
2022-09-01T09:51:34.849Z,18.21
2022-09-01T09:55:04.606Z,18.30
2022-09-01T09:58:30.509Z,18.43
2022-09-01T10:01:53.359Z,18.57
2022-09-01T10:05:33.189Z,18.69
2022-09-01T10:08:56.739Z,18.82
2022-09-01T10:12:19.300Z,18.91
2022-09-01T10:15:44.880Z,18.98
2022-09-01T10:19:12.680Z,19.03
2022-09-01T10:22:36.197Z,18.94
2022-09-01T10:26:06.020Z,19.02
2022-09-01T10:29:35.242Z,19.06
2022-09-01T10:33:15.569Z,19.06
2022-09-01T10:36:47.007Z,19.09
2022-09-01T10:40:25.652Z,19.09
2022-09-01T10:43:54.005Z,18.99
2022-09-01T10:47:29.967Z,18.89
2022-09-01T10:50:53.687Z,18.85
2022-09-01T10:54:58.331Z,18.88
2022-09-01T11:02:26.891Z,18.92
2022-09-01T11:06:12.293Z,19.06
2022-09-01T11:09:38.044Z,19.19
2022-09-01T11:13:25.829Z,19.33
2022-09-01T11:17:13.476Z,19.24
2022-09-01T11:20:40.079Z,19.33
2022-09-01T11:24:44.244Z,19.39
2022-09-01T11:28:37.859Z,19.41
2022-09-01T11:32:00.832Z,19.47
2022-09-01T11:35:26.565Z,19.47
2022-09-01T11:38:53.908Z,19.48
2022-09-01T11:42:21.143Z,19.48
2022-09-01T11:45:52.426Z,19.49
2022-09-01T11:49:32.359Z,19.57
2022-09-01T11:52:59.126Z,19.66
2022-09-01T11:56:27.479Z,19.77
2022-09-01T11:59:49.420Z,19.87
2022-09-01T12:03:22.673Z,19.95
2022-09-01T12:06:54.164Z,20.02
2022-09-01T12:10:21.164Z,20.08
2022-09-01T12:13:57.796Z,20.02
2022-09-01T12:17:21.881Z,20.05
2022-09-01T12:20:43.850Z,20.12
2022-09-01T12:24:16.396Z,20.18
2022-09-01T12:27:38.322Z,20.23
2022-09-01T12:31:03.034Z,20.26
2022-09-01T12:34:39.486Z,20.31
2022-09-01T12:38:25.803Z,20.45
2022-09-01T12:42:01.896Z,20.56
2022-09-01T12:45:42.326Z,20.55
2022-09-01T12:49:19.783Z,20.67
2022-09-01T12:52:47.283Z,20.74
2022-09-01T12:56:32.096Z,20.82
2022-09-01T13:00:08.083Z,20.75
2022-09-01T13:03:30.929Z,20.76
2022-09-01T13:07:01.958Z,20.77
2022-09-01T13:10:25.103Z,20.76
2022-09-01T13:13:46.986Z,20.77
2022-09-01T13:17:13.813Z,20.72
2022-09-01T13:20:37.305Z,20.72
2022-09-01T13:24:00.681Z,20.63
2022-09-01T13:27:23.403Z,20.47
2022-09-01T13:30:49.037Z,20.48
2022-09-01T13:34:22.042Z,20.48
2022-09-01T13:37:45.690Z,20.53
2022-09-01T13:41:11.677Z,20.36
2022-09-01T13:44:34.058Z,20.40
2022-09-01T13:51:37.595Z,20.49
2022-09-01T13:54:59.677Z,20.60
2022-09-01T13:58:23.070Z,20.71
2022-09-01T14:01:46.298Z,20.75
2022-09-01T14:05:09.085Z,20.75
2022-09-01T14:08:33.238Z,20.83
2022-09-01T14:11:55.795Z,20.82
2022-09-01T14:15:25.142Z,20.85
2022-09-01T14:18:48.739Z,20.85
2022-09-01T14:22:11.045Z,20.93
2022-09-01T14:25:33.439Z,21.03
2022-09-01T14:28:55.758Z,21.09
2022-09-01T14:32:19.003Z,21.19
2022-09-01T14:35:43.027Z,21.29
2022-09-01T14:39:05.466Z,21.39
2022-09-01T14:42:29.037Z,21.54
2022-09-01T14:45:51.930Z,21.67
2022-09-01T14:49:21.656Z,21.76
2022-09-01T14:52:44.703Z,21.58
2022-09-01T14:56:07.304Z,21.60
2022-09-01T14:59:30.049Z,21.49
2022-09-01T15:02:52.022Z,21.57
2022-09-01T15:06:16.258Z,21.75
2022-09-01T15:09:38.494Z,21.97
2022-09-01T15:13:02.082Z,22.01
2022-09-01T15:16:26.489Z,22.09
2022-09-01T15:19:48.398Z,22.19
2022-09-01T15:23:12.508Z,22.41
2022-09-01T15:26:34.956Z,22.63
2022-09-01T15:29:57.962Z,22.57
2022-09-01T15:33:19.846Z,22.44
2022-09-01T15:36:44.788Z,22.48
2022-09-01T15:40:10.130Z,22.76
2022-09-01T15:43:32.617Z,23.47
2022-09-01T15:46:55.013Z,23.60
2022-09-01T15:50:21.698Z,23.93
2022-09-01T15:53:44.467Z,24.47
2022-09-01T15:57:09.103Z,24.80
2022-09-01T16:00:31.338Z,25.03
2022-09-01T16:03:54.390Z,25.32
2022-09-01T16:07:16.454Z,25.44
2022-09-01T16:10:42.187Z,25.27
2022-09-01T16:14:06.111Z,25.38
2022-09-01T16:17:42.264Z,25.28
2022-09-01T16:21:15.841Z,24.68
2022-09-01T16:24:43.250Z,24.36
2022-09-01T16:28:14.014Z,24.14
2022-09-01T16:31:37.542Z,24.09
2022-09-01T16:35:01.588Z,23.94
2022-09-01T16:38:34.840Z,23.88
2022-09-01T16:42:13.471Z,24.13
2022-09-01T16:45:44.853Z,24.10
2022-09-01T16:49:18.122Z,23.65
2022-09-01T16:52:58.070Z,23.42
2022-09-01T16:56:30.495Z,23.07
2022-09-01T16:59:55.791Z,22.83
2022-09-01T17:03:19.971Z,22.40
2022-09-01T17:06:52.822Z,22.25
2022-09-01T17:10:27.629Z,22.04
2022-09-01T17:13:51.905Z,21.71
2022-09-01T17:17:19.085Z,21.46
2022-09-01T17:20:42.924Z,21.24
2022-09-01T17:24:31.992Z,21.04
2022-09-01T17:27:59.746Z,20.93
2022-09-01T17:31:34.515Z,20.84
2022-09-01T17:35:07.909Z,20.75
2022-09-01T17:38:37.242Z,20.65
2022-09-01T17:42:07.335Z,20.55
2022-09-01T17:45:35.134Z,20.42
2022-09-01T17:49:08.598Z,20.31
2022-09-01T17:52:47.438Z,20.17
2022-09-01T17:56:36.070Z,20.05
2022-09-01T18:00:03.710Z,19.95
2022-09-01T18:03:51.380Z,19.86
2022-09-01T18:07:27.994Z,19.75
2022-09-01T18:10:55.412Z,19.59
2022-09-01T18:14:22.139Z,19.43
2022-09-01T18:17:49.424Z,19.27
2022-09-01T18:21:16.073Z,19.12
2022-09-01T18:24:46.977Z,18.95
2022-09-01T18:28:09.385Z,18.81
2022-09-01T18:32:00.417Z,18.63
2022-09-01T18:35:40.082Z,18.46
2022-09-01T18:39:08.715Z,18.30
2022-09-01T18:42:37.738Z,18.11
2022-09-01T18:46:04.853Z,17.94
2022-09-01T18:49:37.381Z,17.77
2022-09-01T18:53:13.885Z,17.60
2022-09-01T18:56:44.966Z,17.45
2022-09-01T19:00:18.724Z,17.32
2022-09-01T19:03:48.811Z,17.19
2022-09-01T19:07:22.771Z,17.07
2022-09-01T19:10:51.632Z,16.98
2022-09-01T19:14:25.905Z,16.87
2022-09-01T19:18:07.162Z,16.77
2022-09-01T19:21:32.379Z,16.64
2022-09-01T19:25:19.424Z,16.54
2022-09-01T19:28:48.104Z,16.44
2022-09-01T19:32:21.100Z,16.34
2022-09-01T19:35:46.683Z,16.22
2022-09-01T19:39:16.757Z,16.11
2022-09-01T19:42:43.408Z,16.01
2022-09-01T19:46:23.241Z,15.93
2022-09-01T19:49:54.982Z,15.83
2022-09-01T19:53:38.973Z,15.73
2022-09-01T19:57:14.370Z,15.66
2022-09-01T20:00:55.150Z,15.59
2022-09-01T20:04:34.154Z,15.55
2022-09-01T20:08:06.319Z,15.48
2022-09-01T20:11:40.682Z,15.42
2022-09-01T20:15:12.057Z,15.35
2022-09-01T20:18:40.240Z,15.29
2022-09-01T20:22:17.351Z,15.23
2022-09-01T20:25:43.078Z,15.17
2022-09-01T20:29:12.151Z,15.08
2022-09-01T20:32:42.416Z,15.03
2022-09-01T20:36:16.630Z,14.97
2022-09-01T20:40:02.152Z,14.90
2022-09-01T20:43:28.865Z,14.84
2022-09-01T20:46:52.726Z,14.73
2022-09-01T20:50:15.791Z,14.67
2022-09-01T20:53:55.642Z,14.59
2022-09-01T20:57:44.842Z,14.55
2022-09-01T21:01:19.360Z,14.47
2022-09-01T21:04:50.970Z,14.43
2022-09-01T21:08:31.315Z,14.36
2022-09-01T21:12:00.688Z,14.29
2022-09-01T21:15:34.997Z,14.26
2022-09-01T21:19:05.105Z,14.23
2022-09-01T21:22:29.443Z,14.15
2022-09-01T21:25:51.639Z,14.09
2022-09-01T21:29:31.218Z,14.08
2022-09-01T21:32:57.228Z,14.02
2022-09-01T21:36:19.646Z,13.96
2022-09-01T21:39:41.614Z,13.93
2022-09-01T21:43:07.063Z,13.89
2022-09-01T21:46:29.264Z,13.84
2022-09-01T21:49:52.339Z,13.79
2022-09-01T21:53:14.918Z,13.79
2022-09-01T21:56:36.985Z,13.74
2022-09-01T21:59:58.911Z,13.67
2022-09-01T22:03:21.471Z,13.63
2022-09-01T22:06:44.647Z,13.59
2022-09-01T22:10:07.510Z,13.51
2022-09-01T22:13:29.101Z,13.45
2022-09-01T22:16:51.280Z,13.41
2022-09-01T22:20:15.443Z,13.35
2022-09-01T22:23:40.054Z,13.30
2022-09-01T22:27:01.770Z,13.27
2022-09-01T22:30:23.568Z,13.26
2022-09-01T22:33:45.424Z,13.22
2022-09-01T22:37:07.162Z,13.18
2022-09-01T22:40:30.498Z,13.15
2022-09-01T22:43:52.493Z,13.14
2022-09-01T22:47:14.327Z,13.08
2022-09-01T22:50:39.779Z,13.01
2022-09-01T22:54:02.067Z,12.95
2022-09-01T22:57:25.820Z,12.88
2022-09-01T23:00:50.900Z,12.84
2022-09-01T23:04:15.026Z,12.80
2022-09-01T23:07:39.793Z,12.78
2022-09-01T23:11:01.514Z,12.76
2022-09-01T23:14:25.332Z,12.76
2022-09-01T23:17:47.174Z,12.76
2022-09-01T23:21:11.769Z,12.71
2022-09-01T23:24:33.387Z,12.68
2022-09-01T23:27:57.287Z,12.64
2022-09-01T23:31:22.937Z,12.58
2022-09-01T23:34:44.410Z,12.55
2022-09-01T23:38:06.501Z,12.54
2022-09-01T23:41:32.088Z,12.50
2022-09-01T23:44:54.402Z,12.45
2022-09-01T23:48:19.215Z,12.41
2022-09-01T23:51:41.449Z,12.36
2022-09-01T23:55:02.903Z,12.31
2022-09-01T23:58:26.622Z,12.27
